Ifestos I — SV4139 — position and weather

sailwx.info

Track history (hours):
 
Tides and Currents Weather Stations Pressure Air Temp Water Temp Dewpoint Dewpoint Depression Visibility Wind Speed Wind Dir Waves Ship Positions

Ifestos I

Last reported at 2017-Oct-22 14:30 UTC. Time now 2017-Oct-23 00:51 UTC.
Position N 37°57' E 023°37'.

Length 30 m.

Type: Tug. MMSI: 237070500.

Date/timePositionNaut miles runAvg speedWind from/ knotsBaromVisibWave heightAir tempDewpointWater temp
2017-Oct-22 14:30N 37°57' E 023°37'1 1.5
2017-Oct-22 14:00N 37°57' E 023°36'1 1.3
2017-Oct-22 13:30N 37°57' E 023°36'1 1.8
2017-Oct-22 13:00N 37°57' E 023°37'1 1.6
2017-Oct-22 12:30N 37°57' E 023°36'1 1.2
2017-Oct-22 12:00N 37°57' E 023°35'0 0.8
2017-Oct-22 11:30N 37°57' E 023°35'2 3.5
2017-Oct-22 11:00N 37°57' E 023°37'0 0.1
2017-Oct-22 10:30N 37°57' E 023°37'3 6.7
2017-Oct-22 10:00N 37°59' E 023°33'4 8.1
2017-Oct-22 09:30N 38°01' E 023°28'4 7.8
2017-Oct-22 09:00N 37°58' E 023°25'1 1.0
2017-Oct-22 08:30N 37°58' E 023°24'0 0.0
2017-Oct-22 08:00N 37°58' E 023°24'0 1.0
2017-Oct-22 07:30N 37°57' E 023°24'1 1.7
2017-Oct-22 07:00N 37°58' E 023°24'1 1.0
2017-Oct-22 06:30N 37°58' E 023°24'1 2.0
2017-Oct-22 06:00N 37°58' E 023°25'4 7.3
2017-Oct-22 05:30N 38°00' E 023°29'4 7.9
2017-Oct-22 05:00N 37°58' E 023°33'3 5.2
2017-Oct-22 04:30N 37°58' E 023°36'1 1.6
2017-Oct-22 04:00N 37°57' E 023°36'1 1.0
2017-Oct-22 03:31N 37°57' E 023°35'1 2.3
2017-Oct-22 03:00N 37°57' E 023°37'0 0.0
2017-Oct-21 11:04N 37°57' E 023°37'0 0.1
2017-Oct-21 11:00N 37°57' E 023°37'0 0.1
2017-Oct-21 10:30N 37°57' E 023°37'0 0.0
2017-Oct-21 10:00N 37°57' E 023°37'0 0.2
2017-Oct-21 09:30N 37°57' E 023°37'1 2.1
2017-Oct-21 09:00N 37°57' E 023°36'1 2.2
2017-Oct-21 08:30N 37°57' E 023°37'0 0.0
2017-Oct-21 08:00N 37°57' E 023°37'0 0.0
2017-Oct-21 07:30N 37°57' E 023°37'1 1.5
2017-Oct-21 07:00N 37°57' E 023°36'1 1.2
2017-Oct-21 06:30N 37°57' E 023°35'0 0.8
2017-Oct-21 06:00N 37°57' E 023°35'1 1.7
2017-Oct-21 05:30N 37°57' E 023°36'0 0.9
2017-Oct-21 05:00N 37°57' E 023°35'1 1.5
2017-Oct-21 04:30N 37°56' E 023°35'1 2.6
2017-Oct-21 04:00N 37°57' E 023°36'0 0.4
2017-Oct-21 03:30N 37°57' E 023°36'0 1.0
2017-Oct-21 03:00N 37°57' E 023°37'0 0.0
2017-Oct-20 14:00N 37°57' E 023°37'0 0.0
2017-Oct-20 13:30N 37°57' E 023°37'0 0.0
2017-Oct-20 13:00N 37°57' E 023°37'0 0.0
2017-Oct-20 12:30N 37°57' E 023°37'0 0.0
2017-Oct-20 12:00N 37°57' E 023°37'0 0.9
2017-Oct-20 11:30N 37°57' E 023°36'1 1.3
2017-Oct-20 11:00N 37°56' E 023°36'4 7.1
2017-Oct-20 10:30N 37°59' E 023°33'3 6.4
2017-Oct-20 10:00N 38°02' E 023°33'1 2.8
2017-Oct-20 09:30N 38°01' E 023°33'2 3.6
2017-Oct-20 09:00N 37°59' E 023°33'1 2.6
2017-Oct-20 08:30N 37°58' E 023°34'0 0.6
2017-Oct-20 08:00N 37°57' E 023°34'1 2.5
2017-Oct-20 07:30N 37°58' E 023°33'1 1.8
2017-Oct-20 07:00N 37°58' E 023°33'0 0.4
2017-Oct-20 06:30N 37°57' E 023°33'0 0.3
2017-Oct-20 06:00N 37°58' E 023°33'0 0.1
2017-Oct-20 05:30N 37°58' E 023°33'2 3.7
2017-Oct-20 05:00N 37°57' E 023°36'1 2.7
2017-Oct-20 04:30N 37°56' E 023°37'2 3.6
2017-Oct-20 04:00N 37°57' E 023°35'1 3.0
2017-Oct-20 03:30N 37°57' E 023°37'0 0.0
2017-Oct-20 03:00N 37°57' E 023°37'0 0.0
2017-Oct-18 11:37N 37°57' E 023°37'0 0.0
2017-Oct-18 11:30N 37°57' E 023°37'1 1.5
2017-Oct-18 11:00N 37°57' E 023°36'1 2.1
2017-Oct-18 10:30N 37°56' E 023°36'1 2.4
2017-Oct-18 10:00N 37°57' E 023°36'0 0.8
2017-Oct-18 09:30N 37°57' E 023°36'0 0.4
2017-Oct-18 09:00N 37°57' E 023°37'0 0.0
2017-Oct-18 08:30N 37°57' E 023°37'0 0.0
2017-Oct-18 08:00N 37°57' E 023°37'0 0.0
2017-Oct-18 07:30N 37°57' E 023°37'0 0.0
2017-Oct-18 07:00N 37°57' E 023°37'0 0.0
2017-Oct-18 06:30N 37°57' E 023°37'0 0.0
2017-Oct-18 06:00N 37°57' E 023°37'0 0.0
2017-Oct-18 05:30N 37°57' E 023°37'0 0.0
2017-Oct-18 05:00N 37°57' E 023°37'0 0.0
2017-Oct-18 04:30N 37°57' E 023°37'0 0.0
2017-Oct-18 04:00N 37°57' E 023°37'0 0.0
2017-Oct-18 03:30N 37°57' E 023°37'0 0.0
2017-Oct-18 03:00N 37°57' E 023°37'0 0.0
2017-Oct-17 10:51N 37°57' E 023°37'1 3.4
2017-Oct-17 10:30N 37°57' E 023°35'1 1.9
2017-Oct-17 09:58N 37°57' E 023°36'2 3.7
2017-Oct-17 09:30N 37°57' E 023°34'1 2.9
2017-Oct-17 09:00N 37°57' E 023°36'0 0.5
2017-Oct-17 08:30N 37°57' E 023°36'0 0.2
2017-Oct-17 07:58N 37°57' E 023°36'1 1.2
2017-Oct-17 07:28N 37°57' E 023°36'0 0.4
2017-Oct-17 07:00N 37°57' E 023°36'0 0.8
2017-Oct-17 06:30N 37°57' E 023°36'1 2.5
2017-Oct-17 06:00N 37°56' E 023°36'1 1.4
2017-Oct-17 05:30N 37°57' E 023°36'0 1.0
2017-Oct-17 05:00N 37°57' E 023°36'0 0.0
2017-Oct-17 04:30N 37°57' E 023°36'1 1.5
2017-Oct-17 04:00N 37°57' E 023°37'0 0.0
2017-Oct-17 03:30N 37°57' E 023°37'0 0.0
2017-Oct-17 03:00N 37°57' E 023°37'0 0.0
2017-Oct-16 13:03N 37°57' E 023°37'0 0.0
2017-Oct-16 13:01N 37°57' E 023°37'1 2.6
2017-Oct-16 12:30N 37°57' E 023°35'0 0.0
2017-Oct-16 12:00N 37°57' E 023°35'0 0.4
2017-Oct-16 11:30N 37°57' E 023°35'1 1.6
2017-Oct-16 11:00N 37°58' E 023°36'0 0.9
2017-Oct-16 10:30N 37°57' E 023°36'2 3.1
2017-Oct-16 10:01N 37°56' E 023°36'2 3.7
2017-Oct-16 09:30N 37°57' E 023°37'0 0.0
2017-Oct-16 09:01N 37°57' E 023°37'0 0.2
2017-Oct-16 08:30N 37°57' E 023°37'1 2.2
2017-Oct-16 08:00N 37°57' E 023°35'1 2.2
2017-Oct-16 07:30N 37°57' E 023°37'0 0.0
2017-Oct-16 07:00N 37°57' E 023°37'0 0.0
2017-Oct-16 06:31N 37°57' E 023°37'0 0.2
2017-Oct-16 06:00N 37°57' E 023°37'1 1.3
2017-Oct-16 05:30N 37°57' E 023°36'0 0.4
2017-Oct-16 05:00N 37°57' E 023°36'0 0.3
2017-Oct-16 04:30N 37°57' E 023°36'2 3.5
2017-Oct-16 04:00N 37°56' E 023°36'2 3.7
2017-Oct-16 03:31N 37°57' E 023°37'0 0.0
2017-Oct-16 03:00N 37°57' E 023°37'0 0.0
2017-Oct-15 15:58N 37°57' E 023°37'1 2.3
2017-Oct-15 15:30N 37°57' E 023°35'1 2.1
2017-Oct-15 15:00N 37°57' E 023°37'0 0.0
2017-Oct-15 14:00N 37°57' E 023°37'0 0.0
2017-Oct-15 13:30N 37°57' E 023°37'0 0.0
2017-Oct-15 13:00N 37°57' E 023°37'1 2.4
2017-Oct-15 12:30N 37°57' E 023°35'0 0.3
2017-Oct-15 12:00N 37°57' E 023°35'1 1.5
2017-Oct-15 11:30N 37°58' E 023°36'1 1.9
2017-Oct-15 11:00N 37°57' E 023°35'1 2.5
2017-Oct-15 10:30N 37°57' E 023°37'0 0.0
2017-Oct-15 10:00N 37°57' E 023°37'0 0.0
2017-Oct-15 09:30N 37°57' E 023°37'0 0.0
2017-Oct-15 09:00N 37°57' E 023°37'0 0.0
2017-Oct-15 08:30N 37°57' E 023°37'0 0.0
2017-Oct-15 08:00N 37°57' E 023°37'0 0.0
2017-Oct-15 07:30N 37°57' E 023°37'0 0.0
2017-Oct-15 07:00N 37°57' E 023°37'0 0.0
2017-Oct-15 06:30N 37°57' E 023°37'0 0.0
2017-Oct-15 06:00N 37°57' E 023°37'1 1.5
2017-Oct-15 05:30N 37°57' E 023°36'2 3.8
2017-Oct-15 05:00N 37°55' E 023°36'1 2.2
2017-Oct-15 04:30N 37°56' E 023°36'1 2.6
2017-Oct-15 04:00N 37°57' E 023°35'1 3.0
2017-Oct-15 03:30N 37°57' E 023°37'0 0.0
2017-Oct-15 03:00N 37°57' E 023°37'0 0.0
2017-Oct-14 00:51N 37°57' E 023°37'0 0.3
2017-Oct-14 00:30N 37°57' E 023°37'0 0.2
2017-Oct-14 00:00N 37°57' E 023°37'0 0.0
2017-Oct-13 23:30N 37°57' E 023°37'0 0.0
2017-Oct-13 23:00N 37°57' E 023°37'0 0.0
2017-Oct-13 22:30N 37°57' E 023°37'0 0.0
2017-Oct-13 22:00N 37°57' E 023°37'0 0.0
2017-Oct-13 21:30N 37°57' E 023°37'0 0.0
2017-Oct-13 21:00N 37°57' E 023°37'1 1.8
2017-Oct-13 20:30N 37°57' E 023°36'1 1.5
2017-Oct-13 20:00N 37°57' E 023°35'1 2.0
2017-Oct-13 19:30N 37°56' E 023°35'2 4.0
2017-Oct-13 19:00N 37°57' E 023°37'1 1.4
2017-Oct-13 18:30N 37°57' E 023°36'2 3.5
2017-Oct-13 18:00N 37°56' E 023°36'2 3.5
2017-Oct-13 17:30N 37°57' E 023°36'1 2.2
2017-Oct-13 17:00N 37°56' E 023°36'1 2.3
2017-Oct-13 16:30N 37°57' E 023°37'0 0.0
2017-Oct-13 16:00N 37°57' E 023°37'0 0.0
2017-Oct-13 15:30N 37°57' E 023°37'0 0.0
2017-Oct-13 15:00N 37°57' E 023°37'0 0.0
2017-Oct-13 14:30N 37°57' E 023°37'0 0.0
2017-Oct-13 14:00N 37°57' E 023°37'0 0.0
2017-Oct-13 13:30N 37°57' E 023°37'0 0.0
2017-Oct-13 13:00N 37°57' E 023°37'0 0.0
2017-Oct-13 12:30N 37°57' E 023°37'1 2.3
2017-Oct-13 12:00N 37°57' E 023°35'2 3.4
2017-Oct-13 11:30N 37°57' E 023°33'0 0.4
2017-Oct-13 11:00N 37°58' E 023°34'0 0.1
2017-Oct-13 10:30N 37°57' E 023°33'0 0.1
2017-Oct-13 10:00N 37°58' E 023°33'2 4.6
2017-Oct-13 09:30N 37°57' E 023°36'1 1.0
2017-Oct-13 09:00N 37°57' E 023°37'0 0.0
2017-Oct-13 08:30N 37°57' E 023°37'0 0.0
2017-Oct-13 08:00N 37°57' E 023°37'0 0.0
2017-Oct-13 07:30N 37°57' E 023°37'3 5.1
2017-Oct-13 07:00N 37°57' E 023°33'1 2.1
2017-Oct-13 06:30N 37°57' E 023°35'1 2.8
2017-Oct-13 06:00N 37°57' E 023°37'0 0.2
2017-Oct-13 05:30N 37°57' E 023°37'2 3.0
2017-Oct-13 05:00N 37°56' E 023°36'1 1.9
2017-Oct-13 04:30N 37°57' E 023°36'1 1.6
2017-Oct-13 04:00N 37°57' E 023°37'0 0.0
2017-Oct-13 03:30N 37°57' E 023°37'0 0.0
2017-Oct-13 03:00N 37°57' E 023°37'  
Track history (hours):
 
Tides and Currents Weather Stations Pressure Air Temp Water Temp Dewpoint Dewpoint Depression Visibility Wind Speed Wind Dir Waves Ship Positions

Ifestos I

Last reported at 2017-Oct-22 14:30 UTC. Time now 2017-Oct-23 00:51 UTC.
Position N 37°57' E 023°37'.

Length 30 m.

Type: Tug. MMSI: 237070500.

Date/timePositionNaut miles runAvg speedWind from/ knotsBaromVisibWave heightAir tempDewpointWater temp
2017-Oct-22 14:30N 37°57' E 023°37'1 1.5
2017-Oct-22 14:00N 37°57' E 023°36'1 1.3
2017-Oct-22 13:30N 37°57' E 023°36'1 1.8
2017-Oct-22 13:00N 37°57' E 023°37'1 1.6
2017-Oct-22 12:30N 37°57' E 023°36'1 1.2
2017-Oct-22 12:00N 37°57' E 023°35'0 0.8
2017-Oct-22 11:30N 37°57' E 023°35'2 3.5
2017-Oct-22 11:00N 37°57' E 023°37'0 0.1
2017-Oct-22 10:30N 37°57' E 023°37'3 6.7
2017-Oct-22 10:00N 37°59' E 023°33'4 8.1
2017-Oct-22 09:30N 38°01' E 023°28'4 7.8
2017-Oct-22 09:00N 37°58' E 023°25'1 1.0
2017-Oct-22 08:30N 37°58' E 023°24'0 0.0
2017-Oct-22 08:00N 37°58' E 023°24'0 1.0
2017-Oct-22 07:30N 37°57' E 023°24'1 1.7
2017-Oct-22 07:00N 37°58' E 023°24'1 1.0
2017-Oct-22 06:30N 37°58' E 023°24'1 2.0
2017-Oct-22 06:00N 37°58' E 023°25'4 7.3
2017-Oct-22 05:30N 38°00' E 023°29'4 7.9
2017-Oct-22 05:00N 37°58' E 023°33'3 5.2
2017-Oct-22 04:30N 37°58' E 023°36'1 1.6
2017-Oct-22 04:00N 37°57' E 023°36'1 1.0
2017-Oct-22 03:31N 37°57' E 023°35'1 2.3
2017-Oct-22 03:00N 37°57' E 023°37'0 0.0
2017-Oct-21 11:04N 37°57' E 023°37'0 0.1
2017-Oct-21 11:00N 37°57' E 023°37'0 0.1
2017-Oct-21 10:30N 37°57' E 023°37'0 0.0
2017-Oct-21 10:00N 37°57' E 023°37'0 0.2
2017-Oct-21 09:30N 37°57' E 023°37'1 2.1
2017-Oct-21 09:00N 37°57' E 023°36'1 2.2
2017-Oct-21 08:30N 37°57' E 023°37'0 0.0
2017-Oct-21 08:00N 37°57' E 023°37'0 0.0
2017-Oct-21 07:30N 37°57' E 023°37'1 1.5
2017-Oct-21 07:00N 37°57' E 023°36'1 1.2
2017-Oct-21 06:30N 37°57' E 023°35'0 0.8
2017-Oct-21 06:00N 37°57' E 023°35'1 1.7
2017-Oct-21 05:30N 37°57' E 023°36'0 0.9
2017-Oct-21 05:00N 37°57' E 023°35'1 1.5
2017-Oct-21 04:30N 37°56' E 023°35'1 2.6
2017-Oct-21 04:00N 37°57' E 023°36'0 0.4
2017-Oct-21 03:30N 37°57' E 023°36'0 1.0
2017-Oct-21 03:00N 37°57' E 023°37'0 0.0
2017-Oct-20 14:00N 37°57' E 023°37'0 0.0
2017-Oct-20 13:30N 37°57' E 023°37'0 0.0
2017-Oct-20 13:00N 37°57' E 023°37'0 0.0
2017-Oct-20 12:30N 37°57' E 023°37'0 0.0
2017-Oct-20 12:00N 37°57' E 023°37'0 0.9
2017-Oct-20 11:30N 37°57' E 023°36'1 1.3
2017-Oct-20 11:00N 37°56' E 023°36'4 7.1
2017-Oct-20 10:30N 37°59' E 023°33'3 6.4
2017-Oct-20 10:00N 38°02' E 023°33'1 2.8
2017-Oct-20 09:30N 38°01' E 023°33'2 3.6
2017-Oct-20 09:00N 37°59' E 023°33'1 2.6
2017-Oct-20 08:30N 37°58' E 023°34'0 0.6
2017-Oct-20 08:00N 37°57' E 023°34'1 2.5
2017-Oct-20 07:30N 37°58' E 023°33'1 1.8
2017-Oct-20 07:00N 37°58' E 023°33'0 0.4
2017-Oct-20 06:30N 37°57' E 023°33'0 0.3
2017-Oct-20 06:00N 37°58' E 023°33'0 0.1
2017-Oct-20 05:30N 37°58' E 023°33'2 3.7
2017-Oct-20 05:00N 37°57' E 023°36'1 2.7
2017-Oct-20 04:30N 37°56' E 023°37'2 3.6
2017-Oct-20 04:00N 37°57' E 023°35'1 3.0
2017-Oct-20 03:30N 37°57' E 023°37'0 0.0
2017-Oct-20 03:00N 37°57' E 023°37'0 0.0
2017-Oct-18 11:37N 37°57' E 023°37'0 0.0
2017-Oct-18 11:30N 37°57' E 023°37'1 1.5
2017-Oct-18 11:00N 37°57' E 023°36'1 2.1
2017-Oct-18 10:30N 37°56' E 023°36'1 2.4
2017-Oct-18 10:00N 37°57' E 023°36'0 0.8
2017-Oct-18 09:30N 37°57' E 023°36'0 0.4
2017-Oct-18 09:00N 37°57' E 023°37'0 0.0
2017-Oct-18 08:30N 37°57' E 023°37'0 0.0
2017-Oct-18 08:00N 37°57' E 023°37'0 0.0
2017-Oct-18 07:30N 37°57' E 023°37'0 0.0
2017-Oct-18 07:00N 37°57' E 023°37'0 0.0
2017-Oct-18 06:30N 37°57' E 023°37'0 0.0
2017-Oct-18 06:00N 37°57' E 023°37'0 0.0
2017-Oct-18 05:30N 37°57' E 023°37'0 0.0
2017-Oct-18 05:00N 37°57' E 023°37'0 0.0
2017-Oct-18 04:30N 37°57' E 023°37'0 0.0
2017-Oct-18 04:00N 37°57' E 023°37'0 0.0
2017-Oct-18 03:30N 37°57' E 023°37'0 0.0
2017-Oct-18 03:00N 37°57' E 023°37'0 0.0
2017-Oct-17 10:51N 37°57' E 023°37'1 3.4
2017-Oct-17 10:30N 37°57' E 023°35'1 1.9
2017-Oct-17 09:58N 37°57' E 023°36'2 3.7
2017-Oct-17 09:30N 37°57' E 023°34'1 2.9
2017-Oct-17 09:00N 37°57' E 023°36'0 0.5
2017-Oct-17 08:30N 37°57' E 023°36'0 0.2
2017-Oct-17 07:58N 37°57' E 023°36'1 1.2
2017-Oct-17 07:28N 37°57' E 023°36'0 0.4
2017-Oct-17 07:00N 37°57' E 023°36'0 0.8
2017-Oct-17 06:30N 37°57' E 023°36'1 2.5
2017-Oct-17 06:00N 37°56' E 023°36'1 1.4
2017-Oct-17 05:30N 37°57' E 023°36'0 1.0
2017-Oct-17 05:00N 37°57' E 023°36'0 0.0
2017-Oct-17 04:30N 37°57' E 023°36'1 1.5
2017-Oct-17 04:00N 37°57' E 023°37'0 0.0
2017-Oct-17 03:30N 37°57' E 023°37'0 0.0
2017-Oct-17 03:00N 37°57' E 023°37'0 0.0
2017-Oct-16 13:03N 37°57' E 023°37'0 0.0
2017-Oct-16 13:01N 37°57' E 023°37'1 2.6
2017-Oct-16 12:30N 37°57' E 023°35'0 0.0
2017-Oct-16 12:00N 37°57' E 023°35'0 0.4
2017-Oct-16 11:30N 37°57' E 023°35'1 1.6
2017-Oct-16 11:00N 37°58' E 023°36'0 0.9
2017-Oct-16 10:30N 37°57' E 023°36'2 3.1
2017-Oct-16 10:01N 37°56' E 023°36'2 3.7
2017-Oct-16 09:30N 37°57' E 023°37'0 0.0
2017-Oct-16 09:01N 37°57' E 023°37'0 0.2
2017-Oct-16 08:30N 37°57' E 023°37'1 2.2
2017-Oct-16 08:00N 37°57' E 023°35'1 2.2
2017-Oct-16 07:30N 37°57' E 023°37'0 0.0
2017-Oct-16 07:00N 37°57' E 023°37'0 0.0
2017-Oct-16 06:31N 37°57' E 023°37'0 0.2
2017-Oct-16 06:00N 37°57' E 023°37'1 1.3
2017-Oct-16 05:30N 37°57' E 023°36'0 0.4
2017-Oct-16 05:00N 37°57' E 023°36'0 0.3
2017-Oct-16 04:30N 37°57' E 023°36'2 3.5
2017-Oct-16 04:00N 37°56' E 023°36'2 3.7
2017-Oct-16 03:31N 37°57' E 023°37'0 0.0
2017-Oct-16 03:00N 37°57' E 023°37'0 0.0
2017-Oct-15 15:58N 37°57' E 023°37'1 2.3
2017-Oct-15 15:30N 37°57' E 023°35'1 2.1
2017-Oct-15 15:00N 37°57' E 023°37'0 0.0
2017-Oct-15 14:00N 37°57' E 023°37'0 0.0
2017-Oct-15 13:30N 37°57' E 023°37'0 0.0
2017-Oct-15 13:00N 37°57' E 023°37'1 2.4
2017-Oct-15 12:30N 37°57' E 023°35'0 0.3
2017-Oct-15 12:00N 37°57' E 023°35'1 1.5
2017-Oct-15 11:30N 37°58' E 023°36'1 1.9
2017-Oct-15 11:00N 37°57' E 023°35'1 2.5
2017-Oct-15 10:30N 37°57' E 023°37'0 0.0
2017-Oct-15 10:00N 37°57' E 023°37'0 0.0
2017-Oct-15 09:30N 37°57' E 023°37'0 0.0
2017-Oct-15 09:00N 37°57' E 023°37'0 0.0
2017-Oct-15 08:30N 37°57' E 023°37'0 0.0
2017-Oct-15 08:00N 37°57' E 023°37'0 0.0
2017-Oct-15 07:30N 37°57' E 023°37'0 0.0
2017-Oct-15 07:00N 37°57' E 023°37'0 0.0
2017-Oct-15 06:30N 37°57' E 023°37'0 0.0
2017-Oct-15 06:00N 37°57' E 023°37'1 1.5
2017-Oct-15 05:30N 37°57' E 023°36'2 3.8
2017-Oct-15 05:00N 37°55' E 023°36'1 2.2
2017-Oct-15 04:30N 37°56' E 023°36'1 2.6
2017-Oct-15 04:00N 37°57' E 023°35'1 3.0
2017-Oct-15 03:30N 37°57' E 023°37'0 0.0
2017-Oct-15 03:00N 37°57' E 023°37'0 0.0
2017-Oct-14 00:51N 37°57' E 023°37'0 0.3
2017-Oct-14 00:30N 37°57' E 023°37'0 0.2
2017-Oct-14 00:00N 37°57' E 023°37'0 0.0
2017-Oct-13 23:30N 37°57' E 023°37'0 0.0
2017-Oct-13 23:00N 37°57' E 023°37'0 0.0
2017-Oct-13 22:30N 37°57' E 023°37'0 0.0
2017-Oct-13 22:00N 37°57' E 023°37'0 0.0
2017-Oct-13 21:30N 37°57' E 023°37'0 0.0
2017-Oct-13 21:00N 37°57' E 023°37'1 1.8
2017-Oct-13 20:30N 37°57' E 023°36'1 1.5
2017-Oct-13 20:00N 37°57' E 023°35'1 2.0
2017-Oct-13 19:30N 37°56' E 023°35'2 4.0
2017-Oct-13 19:00N 37°57' E 023°37'1 1.4
2017-Oct-13 18:30N 37°57' E 023°36'2 3.5
2017-Oct-13 18:00N 37°56' E 023°36'2 3.5
2017-Oct-13 17:30N 37°57' E 023°36'1 2.2
2017-Oct-13 17:00N 37°56' E 023°36'1 2.3
2017-Oct-13 16:30N 37°57' E 023°37'0 0.0
2017-Oct-13 16:00N 37°57' E 023°37'0 0.0
2017-Oct-13 15:30N 37°57' E 023°37'0 0.0
2017-Oct-13 15:00N 37°57' E 023°37'0 0.0
2017-Oct-13 14:30N 37°57' E 023°37'0 0.0
2017-Oct-13 14:00N 37°57' E 023°37'0 0.0
2017-Oct-13 13:30N 37°57' E 023°37'0 0.0
2017-Oct-13 13:00N 37°57' E 023°37'0 0.0
2017-Oct-13 12:30N 37°57' E 023°37'1 2.3
2017-Oct-13 12:00N 37°57' E 023°35'2 3.4
2017-Oct-13 11:30N 37°57' E 023°33'0 0.4
2017-Oct-13 11:00N 37°58' E 023°34'0 0.1
2017-Oct-13 10:30N 37°57' E 023°33'0 0.1
2017-Oct-13 10:00N 37°58' E 023°33'2 4.6
2017-Oct-13 09:30N 37°57' E 023°36'1 1.0
2017-Oct-13 09:00N 37°57' E 023°37'0 0.0
2017-Oct-13 08:30N 37°57' E 023°37'0 0.0
2017-Oct-13 08:00N 37°57' E 023°37'0 0.0
2017-Oct-13 07:30N 37°57' E 023°37'3 5.1
2017-Oct-13 07:00N 37°57' E 023°33'1 2.1
2017-Oct-13 06:30N 37°57' E 023°35'1 2.8
2017-Oct-13 06:00N 37°57' E 023°37'0 0.2
2017-Oct-13 05:30N 37°57' E 023°37'2 3.0
2017-Oct-13 05:00N 37°56' E 023°36'1 1.9
2017-Oct-13 04:30N 37°57' E 023°36'1 1.6
2017-Oct-13 04:00N 37°57' E 023°37'0 0.0
2017-Oct-13 03:30N 37°57' E 023°37'0 0.0
2017-Oct-13 03:00N 37°57' E 023°37'  

Dump ship's entire track history